sensor_id;sensor_type;location;lat;lon;timestamp;P1;durP1;ratioP1;P2;durP2;ratioP2
69246;SDS011;56358;56.328;43.992;2023-03-16T00:00:25;2.78;;;1.20;;
69246;SDS011;56358;56.328;43.992;2023-03-16T00:02:26;2.83;;;0.98;;
69246;SDS011;56358;56.328;43.992;2023-03-16T00:04:27;5.13;;;1.20;;
69246;SDS011;56358;56.328;43.992;2023-03-16T00:06:29;2.15;;;0.82;;
69246;SDS011;56358;56.328;43.992;2023-03-16T00:08:30;2.75;;;0.90;;
69246;SDS011;56358;56.328;43.992;2023-03-16T00:10:30;5.82;;;1.20;;
69246;SDS011;56358;56.328;43.992;2023-03-16T00:12:31;2.38;;;0.90;;
69246;SDS011;56358;56.328;43.992;2023-03-16T00:14:34;2.80;;;1.00;;
69246;SDS011;56358;56.328;43.992;2023-03-16T00:16:34;3.60;;;0.90;;
69246;SDS011;56358;56.328;43.992;2023-03-16T00:18:35;2.13;;;1.00;;
69246;SDS011;56358;56.328;43.992;2023-03-16T00:20:38;2.72;;;1.00;;
69246;SDS011;56358;56.328;43.992;2023-03-16T00:22:38;1.63;;;0.90;;
69246;SDS011;56358;56.328;43.992;2023-03-16T00:24:41;1.17;;;0.85;;
69246;SDS011;56358;56.328;43.992;2023-03-16T00:26:45;2.67;;;1.10;;
69246;SDS011;56358;56.328;43.992;2023-03-16T00:28:46;1.83;;;0.90;;
69246;SDS011;56358;56.328;43.992;2023-03-16T00:30:47;2.72;;;1.10;;
69246;SDS011;56358;56.328;43.992;2023-03-16T00:32:48;2.05;;;1.00;;
69246;SDS011;56358;56.328;43.992;2023-03-16T00:34:48;2.10;;;0.90;;
69246;SDS011;56358;56.328;43.992;2023-03-16T00:36:50;1.60;;;1.30;;
69246;SDS011;56358;56.328;43.992;2023-03-16T00:38:51;1.17;;;0.80;;
69246;SDS011;56358;56.328;43.992;2023-03-16T00:40:53;1.50;;;0.90;;
69246;SDS011;56358;56.328;43.992;2023-03-16T00:42:53;0.88;;;0.73;;
69246;SDS011;56358;56.328;43.992;2023-03-16T00:44:55;1.67;;;0.93;;
69246;SDS011;56358;56.328;43.992;2023-03-16T00:46:57;1.70;;;1.00;;
69246;SDS011;56358;56.328;43.992;2023-03-16T00:48:57;1.27;;;0.85;;
69246;SDS011;56358;56.328;43.992;2023-03-16T00:50:58;1.83;;;0.90;;
69246;SDS011;56358;56.328;43.992;2023-03-16T00:52:59;3.80;;;1.17;;
69246;SDS011;56358;56.328;43.992;2023-03-16T00:55:00;2.63;;;1.10;;
69246;SDS011;56358;56.328;43.992;2023-03-16T00:57:03;3.70;;;0.80;;
69246;SDS011;56358;56.328;43.992;2023-03-16T00:59:04;2.17;;;1.00;;
69246;SDS011;56358;56.328;43.992;2023-03-16T01:01:05;3.38;;;1.23;;
69246;SDS011;56358;56.328;43.992;2023-03-16T01:03:08;0.80;;;0.80;;
69246;SDS011;56358;56.328;43.992;2023-03-16T01:05:09;1.05;;;0.80;;
69246;SDS011;56358;56.328;43.992;2023-03-16T01:07:12;1.15;;;0.80;;
69246;SDS011;56358;56.328;43.992;2023-03-16T01:09:13;2.70;;;1.08;;
69246;SDS011;56358;56.328;43.992;2023-03-16T01:11:17;1.77;;;0.90;;
69246;SDS011;56358;56.328;43.992;2023-03-16T01:13:20;3.58;;;0.85;;
69246;SDS011;56358;56.328;43.992;2023-03-16T01:15:21;5.40;;;1.00;;
69246;SDS011;56358;56.328;43.992;2023-03-16T01:17:22;4.13;;;1.00;;
69246;SDS011;56358;56.328;43.992;2023-03-16T01:19:23;2.38;;;0.70;;
69246;SDS011;56358;56.328;43.992;2023-03-16T01:21:24;2.25;;;1.05;;
69246;SDS011;56358;56.328;43.992;2023-03-16T01:23:24;1.95;;;0.95;;
69246;SDS011;56358;56.328;43.992;2023-03-16T01:25:25;1.88;;;0.80;;
69246;SDS011;56358;56.328;43.992;2023-03-16T01:27:25;2.15;;;1.08;;
69246;SDS011;56358;56.328;43.992;2023-03-16T01:29:26;2.08;;;0.93;;
69246;SDS011;56358;56.328;43.992;2023-03-16T01:31:28;3.20;;;0.80;;
69246;SDS011;56358;56.328;43.992;2023-03-16T01:33:31;1.90;;;0.93;;
69246;SDS011;56358;56.328;43.992;2023-03-16T01:35:32;2.08;;;0.95;;
69246;SDS011;56358;56.328;43.992;2023-03-16T01:37:33;1.92;;;0.90;;
69246;SDS011;56358;56.328;43.992;2023-03-16T01:39:34;2.47;;;1.40;;
69246;SDS011;56358;56.328;43.992;2023-03-16T01:41:34;0.98;;;0.80;;
69246;SDS011;56358;56.328;43.992;2023-03-16T01:43:35;1.85;;;0.98;;
69246;SDS011;56358;56.328;43.992;2023-03-16T01:48:05;2.30;;;1.00;;
69246;SDS011;56358;56.328;43.992;2023-03-16T01:50:07;3.28;;;0.77;;
69246;SDS011;56358;56.328;43.992;2023-03-16T01:52:09;1.30;;;0.80;;
69246;SDS011;56358;56.328;43.992;2023-03-16T01:54:27;1.65;;;0.90;;
69246;SDS011;56358;56.328;43.992;2023-03-16T01:56:35;1.15;;;0.70;;
69246;SDS011;56358;56.328;43.992;2023-03-16T01:58:41;2.05;;;1.00;;
69246;SDS011;56358;56.328;43.992;2023-03-16T02:00:43;2.53;;;0.80;;
69246;SDS011;56358;56.328;43.992;2023-03-16T02:02:45;2.22;;;0.90;;
69246;SDS011;56358;56.328;43.992;2023-03-16T02:07:22;2.40;;;0.80;;
69246;SDS011;56358;56.328;43.992;2023-03-16T02:09:26;1.13;;;0.88;;
69246;SDS011;56358;56.328;43.992;2023-03-16T02:11:28;1.17;;;0.70;;
69246;SDS011;56358;56.328;43.992;2023-03-16T02:13:29;1.60;;;0.70;;
69246;SDS011;56358;56.328;43.992;2023-03-16T02:15:33;0.75;;;0.70;;
69246;SDS011;56358;56.328;43.992;2023-03-16T02:17:35;1.65;;;0.90;;
69246;SDS011;56358;56.328;43.992;2023-03-16T02:22:00;1.35;;;1.00;;
69246;SDS011;56358;56.328;43.992;2023-03-16T02:24:03;1.30;;;0.90;;
69246;SDS011;56358;56.328;43.992;2023-03-16T02:30:29;1.57;;;0.80;;
69246;SDS011;56358;56.328;43.992;2023-03-16T02:32:30;2.70;;;0.88;;
69246;SDS011;56358;56.328;43.992;2023-03-16T02:34:32;3.45;;;1.10;;
69246;SDS011;56358;56.328;43.992;2023-03-16T02:36:34;1.35;;;0.90;;
69246;SDS011;56358;56.328;43.992;2023-03-16T02:38:37;3.78;;;1.00;;
69246;SDS011;56358;56.328;43.992;2023-03-16T02:40:37;1.42;;;0.70;;
69246;SDS011;56358;56.328;43.992;2023-03-16T02:42:38;1.10;;;0.85;;
69246;SDS011;56358;56.328;43.992;2023-03-16T02:44:39;0.77;;;0.75;;
69246;SDS011;56358;56.328;43.992;2023-03-16T02:46:43;3.20;;;0.98;;
69246;SDS011;56358;56.328;43.992;2023-03-16T02:48:50;2.42;;;1.10;;
69246;SDS011;56358;56.328;43.992;2023-03-16T02:51:06;1.98;;;0.90;;
69246;SDS011;56358;56.328;43.992;2023-03-16T02:53:07;3.08;;;1.08;;
69246;SDS011;56358;56.328;43.992;2023-03-16T02:55:08;1.90;;;0.90;;
69246;SDS011;56358;56.328;43.992;2023-03-16T02:57:09;2.53;;;0.93;;
69246;SDS011;56358;56.328;43.992;2023-03-16T02:59:10;1.05;;;0.73;;
69246;SDS011;56358;56.328;43.992;2023-03-16T03:01:11;1.35;;;1.00;;
69246;SDS011;56358;56.328;43.992;2023-03-16T03:03:11;3.40;;;0.85;;
69246;SDS011;56358;56.328;43.992;2023-03-16T03:05:13;1.77;;;1.08;;
69246;SDS011;56358;56.328;43.992;2023-03-16T03:07:14;0.98;;;0.82;;
69246;SDS011;56358;56.328;43.992;2023-03-16T03:09:15;1.00;;;0.70;;
69246;SDS011;56358;56.328;43.992;2023-03-16T03:11:16;1.20;;;0.80;;
69246;SDS011;56358;56.328;43.992;2023-03-16T03:13:18;1.95;;;0.90;;
69246;SDS011;56358;56.328;43.992;2023-03-16T03:15:19;3.13;;;1.17;;
69246;SDS011;56358;56.328;43.992;2023-03-16T03:17:20;1.13;;;1.00;;
69246;SDS011;56358;56.328;43.992;2023-03-16T03:19:21;2.47;;;1.00;;
69246;SDS011;56358;56.328;43.992;2023-03-16T03:21:22;1.55;;;0.90;;
69246;SDS011;56358;56.328;43.992;2023-03-16T03:23:23;1.33;;;1.00;;
69246;SDS011;56358;56.328;43.992;2023-03-16T03:25:24;1.50;;;0.90;;
69246;SDS011;56358;56.328;43.992;2023-03-16T03:27:24;1.60;;;1.00;;
69246;SDS011;56358;56.328;43.992;2023-03-16T03:29:25;1.95;;;1.00;;
69246;SDS011;56358;56.328;43.992;2023-03-16T03:31:33;2.55;;;1.50;;
69246;SDS011;56358;56.328;43.992;2023-03-16T03:33:34;1.58;;;1.10;;
69246;SDS011;56358;56.328;43.992;2023-03-16T03:35:35;2.92;;;1.40;;
69246;SDS011;56358;56.328;43.992;2023-03-16T03:37:36;1.98;;;1.23;;
69246;SDS011;56358;56.328;43.992;2023-03-16T03:39:36;1.90;;;1.15;;
69246;SDS011;56358;56.328;43.992;2023-03-16T03:41:39;1.83;;;1.15;;
69246;SDS011;56358;56.328;43.992;2023-03-16T03:43:40;4.43;;;1.42;;
69246;SDS011;56358;56.328;43.992;2023-03-16T03:45:40;2.45;;;1.10;;
69246;SDS011;56358;56.328;43.992;2023-03-16T03:47:41;1.20;;;0.93;;
69246;SDS011;56358;56.328;43.992;2023-03-16T03:49:42;1.95;;;1.00;;
69246;SDS011;56358;56.328;43.992;2023-03-16T03:51:43;1.80;;;1.05;;
69246;SDS011;56358;56.328;43.992;2023-03-16T03:53:43;2.15;;;1.05;;
69246;SDS011;56358;56.328;43.992;2023-03-16T03:55:44;1.60;;;1.00;;
69246;SDS011;56358;56.328;43.992;2023-03-16T03:57:45;3.40;;;0.98;;
69246;SDS011;56358;56.328;43.992;2023-03-16T03:59:45;2.10;;;1.10;;
69246;SDS011;56358;56.328;43.992;2023-03-16T04:01:46;2.13;;;1.08;;
69246;SDS011;56358;56.328;43.992;2023-03-16T04:03:48;1.33;;;0.82;;
69246;SDS011;56358;56.328;43.992;2023-03-16T04:05:48;2.88;;;0.90;;
69246;SDS011;56358;56.328;43.992;2023-03-16T04:07:49;1.40;;;0.93;;
69246;SDS011;56358;56.328;43.992;2023-03-16T04:09:54;2.53;;;1.10;;
69246;SDS011;56358;56.328;43.992;2023-03-16T04:11:54;2.05;;;1.00;;
69246;SDS011;56358;56.328;43.992;2023-03-16T04:13:56;1.33;;;0.90;;
69246;SDS011;56358;56.328;43.992;2023-03-16T04:15:57;2.35;;;0.90;;
69246;SDS011;56358;56.328;43.992;2023-03-16T04:18:01;4.60;;;1.40;;
69246;SDS011;56358;56.328;43.992;2023-03-16T04:20:03;3.38;;;1.55;;
69246;SDS011;56358;56.328;43.992;2023-03-16T04:22:13;3.53;;;1.35;;
69246;SDS011;56358;56.328;43.992;2023-03-16T04:24:14;3.80;;;1.48;;
69246;SDS011;56358;56.328;43.992;2023-03-16T04:26:14;4.35;;;1.60;;
69246;SDS011;56358;56.328;43.992;2023-03-16T04:28:15;3.25;;;1.60;;
69246;SDS011;56358;56.328;43.992;2023-03-16T04:30:17;3.78;;;1.70;;
69246;SDS011;56358;56.328;43.992;2023-03-16T04:32:17;3.50;;;1.48;;
69246;SDS011;56358;56.328;43.992;2023-03-16T04:34:18;2.28;;;1.20;;
69246;SDS011;56358;56.328;43.992;2023-03-16T04:36:24;3.40;;;1.33;;
69246;SDS011;56358;56.328;43.992;2023-03-16T04:38:24;3.80;;;1.10;;
69246;SDS011;56358;56.328;43.992;2023-03-16T04:40:25;1.30;;;0.90;;
69246;SDS011;56358;56.328;43.992;2023-03-16T04:42:26;2.83;;;1.00;;
69246;SDS011;56358;56.328;43.992;2023-03-16T04:44:26;2.35;;;1.10;;
69246;SDS011;56358;56.328;43.992;2023-03-16T04:46:27;3.42;;;1.10;;
69246;SDS011;56358;56.328;43.992;2023-03-16T04:48:29;1.75;;;1.00;;
69246;SDS011;56358;56.328;43.992;2023-03-16T04:50:31;5.07;;;1.10;;
69246;SDS011;56358;56.328;43.992;2023-03-16T04:52:32;1.83;;;0.98;;
69246;SDS011;56358;56.328;43.992;2023-03-16T04:54:33;2.53;;;0.93;;
69246;SDS011;56358;56.328;43.992;2023-03-16T04:56:34;1.58;;;1.27;;
69246;SDS011;56358;56.328;43.992;2023-03-16T04:58:35;1.95;;;1.13;;
69246;SDS011;56358;56.328;43.992;2023-03-16T05:00:35;5.38;;;1.02;;
69246;SDS011;56358;56.328;43.992;2023-03-16T05:02:36;6.40;;;1.20;;
69246;SDS011;56358;56.328;43.992;2023-03-16T05:04:36;3.03;;;1.05;;
69246;SDS011;56358;56.328;43.992;2023-03-16T05:06:37;1.60;;;0.95;;
69246;SDS011;56358;56.328;43.992;2023-03-16T05:08:38;1.27;;;0.90;;
69246;SDS011;56358;56.328;43.992;2023-03-16T05:10:38;3.22;;;1.13;;
69246;SDS011;56358;56.328;43.992;2023-03-16T05:12:39;3.65;;;0.98;;
69246;SDS011;56358;56.328;43.992;2023-03-16T05:14:40;3.83;;;1.15;;
69246;SDS011;56358;56.328;43.992;2023-03-16T05:16:40;2.42;;;1.10;;
69246;SDS011;56358;56.328;43.992;2023-03-16T05:18:41;2.85;;;1.05;;
69246;SDS011;56358;56.328;43.992;2023-03-16T05:20:41;4.10;;;1.13;;
69246;SDS011;56358;56.328;43.992;2023-03-16T05:22:43;2.13;;;1.20;;
69246;SDS011;56358;56.328;43.992;2023-03-16T05:24:45;1.15;;;0.82;;
69246;SDS011;56358;56.328;43.992;2023-03-16T05:26:45;3.42;;;1.02;;
69246;SDS011;56358;56.328;43.992;2023-03-16T05:28:46;5.00;;;1.20;;
69246;SDS011;56358;56.328;43.992;2023-03-16T05:30:46;1.30;;;1.00;;
69246;SDS011;56358;56.328;43.992;2023-03-16T05:32:47;2.42;;;1.15;;
69246;SDS011;56358;56.328;43.992;2023-03-16T05:34:48;1.73;;;1.10;;
69246;SDS011;56358;56.328;43.992;2023-03-16T05:36:48;3.33;;;1.02;;
69246;SDS011;56358;56.328;43.992;2023-03-16T05:38:49;2.80;;;1.10;;
69246;SDS011;56358;56.328;43.992;2023-03-16T05:40:51;1.40;;;0.80;;
69246;SDS011;56358;56.328;43.992;2023-03-16T05:42:54;2.47;;;0.90;;
69246;SDS011;56358;56.328;43.992;2023-03-16T05:44:55;2.38;;;1.00;;
69246;SDS011;56358;56.328;43.992;2023-03-16T05:46:56;1.92;;;0.88;;
69246;SDS011;56358;56.328;43.992;2023-03-16T05:48:56;3.03;;;1.02;;
69246;SDS011;56358;56.328;43.992;2023-03-16T05:50:57;1.90;;;0.80;;
69246;SDS011;56358;56.328;43.992;2023-03-16T05:52:58;2.05;;;1.00;;
69246;SDS011;56358;56.328;43.992;2023-03-16T05:54:58;2.65;;;0.90;;
69246;SDS011;56358;56.328;43.992;2023-03-16T05:56:59;2.03;;;0.90;;
69246;SDS011;56358;56.328;43.992;2023-03-16T05:59:00;2.17;;;1.08;;
69246;SDS011;56358;56.328;43.992;2023-03-16T06:01:01;1.67;;;0.90;;
69246;SDS011;56358;56.328;43.992;2023-03-16T06:03:04;3.50;;;1.10;;
69246;SDS011;56358;56.328;43.992;2023-03-16T06:05:04;1.98;;;1.00;;
69246;SDS011;56358;56.328;43.992;2023-03-16T06:07:06;3.53;;;1.10;;
69246;SDS011;56358;56.328;43.992;2023-03-16T06:09:07;1.98;;;1.00;;
69246;SDS011;56358;56.328;43.992;2023-03-16T06:11:09;4.95;;;1.80;;
69246;SDS011;56358;56.328;43.992;2023-03-16T06:13:10;1.95;;;1.00;;
69246;SDS011;56358;56.328;43.992;2023-03-16T06:15:11;2.13;;;1.00;;
69246;SDS011;56358;56.328;43.992;2023-03-16T06:17:12;4.03;;;1.05;;
69246;SDS011;56358;56.328;43.992;2023-03-16T06:19:13;1.48;;;1.10;;
69246;SDS011;56358;56.328;43.992;2023-03-16T06:21:14;2.45;;;1.00;;
69246;SDS011;56358;56.328;43.992;2023-03-16T06:23:14;3.22;;;1.45;;
69246;SDS011;56358;56.328;43.992;2023-03-16T06:25:15;1.88;;;0.98;;
69246;SDS011;56358;56.328;43.992;2023-03-16T06:27:16;1.55;;;0.85;;
69246;SDS011;56358;56.328;43.992;2023-03-16T06:29:19;4.75;;;1.30;;
69246;SDS011;56358;56.328;43.992;2023-03-16T06:31:20;3.25;;;1.00;;
69246;SDS011;56358;56.328;43.992;2023-03-16T06:33:20;2.05;;;1.05;;
69246;SDS011;56358;56.328;43.992;2023-03-16T06:35:21;2.60;;;0.98;;
69246;SDS011;56358;56.328;43.992;2023-03-16T06:37:22;3.42;;;1.00;;
69246;SDS011;56358;56.328;43.992;2023-03-16T06:39:22;1.15;;;1.00;;
69246;SDS011;56358;56.328;43.992;2023-03-16T06:41:23;3.75;;;1.20;;
69246;SDS011;56358;56.328;43.992;2023-03-16T06:43:24;3.55;;;1.05;;
69246;SDS011;56358;56.328;43.992;2023-03-16T06:45:24;4.82;;;1.13;;
69246;SDS011;56358;56.328;43.992;2023-03-16T06:47:25;2.88;;;1.02;;
69246;SDS011;56358;56.328;43.992;2023-03-16T06:49:26;4.18;;;1.10;;
69246;SDS011;56358;56.328;43.992;2023-03-16T06:51:26;2.15;;;1.10;;
69246;SDS011;56358;56.328;43.992;2023-03-16T06:53:27;2.58;;;1.25;;
69246;SDS011;56358;56.328;43.992;2023-03-16T06:55:28;2.22;;;1.08;;
69246;SDS011;56358;56.328;43.992;2023-03-16T06:57:28;2.15;;;1.00;;
69246;SDS011;56358;56.328;43.992;2023-03-16T06:59:30;5.18;;;1.50;;
69246;SDS011;56358;56.328;43.992;2023-03-16T07:01:31;5.03;;;1.48;;
69246;SDS011;56358;56.328;43.992;2023-03-16T07:03:31;4.00;;;1.20;;
69246;SDS011;56358;56.328;43.992;2023-03-16T07:05:32;5.63;;;1.08;;
69246;SDS011;56358;56.328;43.992;2023-03-16T07:07:33;1.55;;;1.02;;
69246;SDS011;56358;56.328;43.992;2023-03-16T07:09:33;3.15;;;1.20;;
69246;SDS011;56358;56.328;43.992;2023-03-16T07:11:34;5.13;;;1.55;;
69246;SDS011;56358;56.328;43.992;2023-03-16T07:13:35;1.95;;;1.33;;
69246;SDS011;56358;56.328;43.992;2023-03-16T07:15:36;4.53;;;1.10;;
69246;SDS011;56358;56.328;43.992;2023-03-16T07:17:37;4.10;;;1.20;;
69246;SDS011;56358;56.328;43.992;2023-03-16T07:19:38;3.00;;;1.10;;
69246;SDS011;56358;56.328;43.992;2023-03-16T07:21:38;4.07;;;1.42;;
69246;SDS011;56358;56.328;43.992;2023-03-16T07:23:39;2.85;;;1.10;;
69246;SDS011;56358;56.328;43.992;2023-03-16T07:25:40;2.30;;;1.20;;
69246;SDS011;56358;56.328;43.992;2023-03-16T07:27:41;3.92;;;1.30;;
69246;SDS011;56358;56.328;43.992;2023-03-16T07:29:42;4.85;;;1.25;;
69246;SDS011;56358;56.328;43.992;2023-03-16T07:31:43;3.65;;;1.02;;
69246;SDS011;56358;56.328;43.992;2023-03-16T07:33:44;4.68;;;1.33;;
69246;SDS011;56358;56.328;43.992;2023-03-16T07:35:44;3.83;;;1.30;;
69246;SDS011;56358;56.328;43.992;2023-03-16T07:37:45;3.95;;;1.35;;
69246;SDS011;56358;56.328;43.992;2023-03-16T07:39:46;5.57;;;1.30;;
69246;SDS011;56358;56.328;43.992;2023-03-16T07:41:46;7.05;;;1.58;;
69246;SDS011;56358;56.328;43.992;2023-03-16T07:43:47;5.60;;;1.77;;
69246;SDS011;56358;56.328;43.992;2023-03-16T07:45:48;4.20;;;1.52;;
69246;SDS011;56358;56.328;43.992;2023-03-16T07:47:50;8.50;;;1.63;;
69246;SDS011;56358;56.328;43.992;2023-03-16T07:49:51;7.90;;;1.70;;
69246;SDS011;56358;56.328;43.992;2023-03-16T07:51:52;5.35;;;1.58;;
69246;SDS011;56358;56.328;43.992;2023-03-16T07:53:52;7.18;;;1.73;;
69246;SDS011;56358;56.328;43.992;2023-03-16T07:55:53;6.80;;;1.58;;
69246;SDS011;56358;56.328;43.992;2023-03-16T07:57:54;6.57;;;1.73;;
69246;SDS011;56358;56.328;43.992;2023-03-16T07:59:54;4.90;;;1.77;;
69246;SDS011;56358;56.328;43.992;2023-03-16T08:01:55;4.93;;;1.70;;
69246;SDS011;56358;56.328;43.992;2023-03-16T08:03:56;5.07;;;1.88;;
69246;SDS011;56358;56.328;43.992;2023-03-16T08:05:56;10.63;;;2.03;;
69246;SDS011;56358;56.328;43.992;2023-03-16T08:07:57;8.43;;;2.78;;
69246;SDS011;56358;56.328;43.992;2023-03-16T08:09:57;3.63;;;1.67;;
69246;SDS011;56358;56.328;43.992;2023-03-16T08:11:58;7.20;;;1.80;;
69246;SDS011;56358;56.328;43.992;2023-03-16T08:13:59;3.80;;;1.73;;
69246;SDS011;56358;56.328;43.992;2023-03-16T08:15:59;12.73;;;2.15;;
69246;SDS011;56358;56.328;43.992;2023-03-16T08:18:01;6.55;;;1.60;;
69246;SDS011;56358;56.328;43.992;2023-03-16T08:20:02;5.60;;;2.10;;
69246;SDS011;56358;56.328;43.992;2023-03-16T08:22:11;7.47;;;1.85;;
69246;SDS011;56358;56.328;43.992;2023-03-16T08:24:12;5.65;;;1.67;;
69246;SDS011;56358;56.328;43.992;2023-03-16T08:26:13;6.22;;;1.73;;
69246;SDS011;56358;56.328;43.992;2023-03-16T08:28:16;6.55;;;1.40;;
69246;SDS011;56358;56.328;43.992;2023-03-16T08:30:20;4.78;;;1.80;;
69246;SDS011;56358;56.328;43.992;2023-03-16T08:32:21;2.25;;;1.15;;
69246;SDS011;56358;56.328;43.992;2023-03-16T08:34:23;5.82;;;1.80;;
69246;SDS011;56358;56.328;43.992;2023-03-16T08:36:24;9.35;;;1.80;;
69246;SDS011;56358;56.328;43.992;2023-03-16T08:38:24;6.07;;;1.65;;
69246;SDS011;56358;56.328;43.992;2023-03-16T08:40:26;7.90;;;1.65;;
69246;SDS011;56358;56.328;43.992;2023-03-16T08:42:28;14.03;;;1.93;;
69246;SDS011;56358;56.328;43.992;2023-03-16T08:44:29;8.27;;;2.55;;
69246;SDS011;56358;56.328;43.992;2023-03-16T08:46:29;15.45;;;2.17;;
69246;SDS011;56358;56.328;43.992;2023-03-16T08:48:30;4.85;;;1.40;;
69246;SDS011;56358;56.328;43.992;2023-03-16T08:50:35;6.70;;;1.67;;
69246;SDS011;56358;56.328;43.992;2023-03-16T08:52:36;10.48;;;1.90;;
69246;SDS011;56358;56.328;43.992;2023-03-16T08:54:38;10.82;;;1.98;;
69246;SDS011;56358;56.328;43.992;2023-03-16T08:56:38;12.52;;;2.03;;
69246;SDS011;56358;56.328;43.992;2023-03-16T08:58:40;13.32;;;2.05;;
69246;SDS011;56358;56.328;43.992;2023-03-16T09:00:45;8.02;;;1.95;;
69246;SDS011;56358;56.328;43.992;2023-03-16T09:02:45;9.50;;;1.60;;
69246;SDS011;56358;56.328;43.992;2023-03-16T09:04:47;12.23;;;1.92;;
69246;SDS011;56358;56.328;43.992;2023-03-16T09:06:48;7.57;;;1.70;;
69246;SDS011;56358;56.328;43.992;2023-03-16T09:08:52;13.35;;;1.83;;
69246;SDS011;56358;56.328;43.992;2023-03-16T09:10:58;13.70;;;2.08;;
69246;SDS011;56358;56.328;43.992;2023-03-16T09:13:04;6.60;;;1.67;;
69246;SDS011;56358;56.328;43.992;2023-03-16T09:15:05;16.23;;;2.03;;
69246;SDS011;56358;56.328;43.992;2023-03-16T09:17:07;10.23;;;2.35;;
69246;SDS011;56358;56.328;43.992;2023-03-16T09:19:07;4.70;;;1.75;;
69246;SDS011;56358;56.328;43.992;2023-03-16T09:21:08;10.68;;;2.50;;
69246;SDS011;56358;56.328;43.992;2023-03-16T09:23:13;13.43;;;2.22;;
69246;SDS011;56358;56.328;43.992;2023-03-16T09:25:13;9.55;;;1.85;;
69246;SDS011;56358;56.328;43.992;2023-03-16T09:27:14;12.27;;;4.10;;
69246;SDS011;56358;56.328;43.992;2023-03-16T09:29:16;16.85;;;3.22;;
69246;SDS011;56358;56.328;43.992;2023-03-16T09:31:18;11.38;;;2.65;;
69246;SDS011;56358;56.328;43.992;2023-03-16T09:33:20;10.38;;;2.38;;
69246;SDS011;56358;56.328;43.992;2023-03-16T09:35:21;11.98;;;2.20;;
69246;SDS011;56358;56.328;43.992;2023-03-16T09:37:22;17.40;;;2.50;;
69246;SDS011;56358;56.328;43.992;2023-03-16T09:39:23;11.93;;;2.17;;
69246;SDS011;56358;56.328;43.992;2023-03-16T09:41:41;12.65;;;3.00;;
69246;SDS011;56358;56.328;43.992;2023-03-16T09:47:59;12.85;;;2.38;;
69246;SDS011;56358;56.328;43.992;2023-03-16T09:50:04;8.40;;;2.35;;
69246;SDS011;56358;56.328;43.992;2023-03-16T09:52:19;8.93;;;2.22;;
69246;SDS011;56358;56.328;43.992;2023-03-16T09:54:30;14.10;;;2.42;;
69246;SDS011;56358;56.328;43.992;2023-03-16T09:56:39;13.40;;;2.22;;
69246;SDS011;56358;56.328;43.992;2023-03-16T09:58:42;12.65;;;1.90;;
69246;SDS011;56358;56.328;43.992;2023-03-16T10:05:35;15.82;;;2.38;;
69246;SDS011;56358;56.328;43.992;2023-03-16T10:09:56;12.30;;;2.80;;
69246;SDS011;56358;56.328;43.992;2023-03-16T10:12:05;14.00;;;2.70;;
69246;SDS011;56358;56.328;43.992;2023-03-16T10:16:25;9.13;;;1.73;;
69246;SDS011;56358;56.328;43.992;2023-03-16T10:18:42;11.07;;;2.00;;
69246;SDS011;56358;56.328;43.992;2023-03-16T10:20:45;13.40;;;2.30;;
69246;SDS011;56358;56.328;43.992;2023-03-16T10:22:48;9.15;;;2.33;;
69246;SDS011;56358;56.328;43.992;2023-03-16T10:27:04;17.50;;;3.58;;
69246;SDS011;56358;56.328;43.992;2023-03-16T10:29:13;7.45;;;1.83;;
69246;SDS011;56358;56.328;43.992;2023-03-16T10:31:16;10.98;;;1.95;;
69246;SDS011;56358;56.328;43.992;2023-03-16T10:33:29;11.07;;;2.00;;
69246;SDS011;56358;56.328;43.992;2023-03-16T10:35:50;17.80;;;1.80;;
69246;SDS011;56358;56.328;43.992;2023-03-16T10:37:57;9.05;;;2.30;;
69246;SDS011;56358;56.328;43.992;2023-03-16T10:39:58;15.25;;;2.67;;
69246;SDS011;56358;56.328;43.992;2023-03-16T10:41:59;7.90;;;2.17;;
69246;SDS011;56358;56.328;43.992;2023-03-16T10:44:01;10.60;;;2.00;;
69246;SDS011;56358;56.328;43.992;2023-03-16T10:46:09;15.38;;;2.10;;
69246;SDS011;56358;56.328;43.992;2023-03-16T10:48:12;10.82;;;2.28;;
69246;SDS011;56358;56.328;43.992;2023-03-16T10:50:21;18.25;;;2.25;;
69246;SDS011;56358;56.328;43.992;2023-03-16T10:56:36;15.68;;;2.10;;
69246;SDS011;56358;56.328;43.992;2023-03-16T10:58:41;11.25;;;2.13;;
69246;SDS011;56358;56.328;43.992;2023-03-16T11:00:42;8.98;;;2.13;;
69246;SDS011;56358;56.328;43.992;2023-03-16T11:02:46;14.98;;;2.78;;
69246;SDS011;56358;56.328;43.992;2023-03-16T11:04:48;13.35;;;2.42;;
69246;SDS011;56358;56.328;43.992;2023-03-16T11:06:51;8.30;;;1.90;;
69246;SDS011;56358;56.328;43.992;2023-03-16T11:09:01;17.15;;;2.28;;
69246;SDS011;56358;56.328;43.992;2023-03-16T11:11:13;15.77;;;1.98;;
69246;SDS011;56358;56.328;43.992;2023-03-16T11:13:31;13.88;;;2.00;;
69246;SDS011;56358;56.328;43.992;2023-03-16T11:15:45;11.80;;;1.90;;
69246;SDS011;56358;56.328;43.992;2023-03-16T11:18:04;15.80;;;2.42;;
69246;SDS011;56358;56.328;43.992;2023-03-16T11:20:09;9.05;;;1.92;;
69246;SDS011;56358;56.328;43.992;2023-03-16T11:22:20;14.68;;;2.25;;
69246;SDS011;56358;56.328;43.992;2023-03-16T11:26:57;14.77;;;2.05;;
69246;SDS011;56358;56.328;43.992;2023-03-16T11:31:51;9.43;;;1.80;;
69246;SDS011;56358;56.328;43.992;2023-03-16T11:33:55;14.88;;;2.47;;
69246;SDS011;56358;56.328;43.992;2023-03-16T11:36:00;10.60;;;3.35;;
69246;SDS011;56358;56.328;43.992;2023-03-16T11:40:57;18.70;;;2.20;;
69246;SDS011;56358;56.328;43.992;2023-03-16T11:50:27;13.65;;;2.60;;
69246;SDS011;56358;56.328;43.992;2023-03-16T11:52:58;18.80;;;3.03;;
69246;SDS011;56358;56.328;43.992;2023-03-16T11:55:15;18.65;;;2.50;;
69246;SDS011;56358;56.328;43.992;2023-03-16T12:06:52;21.30;;;3.10;;
69246;SDS011;56358;56.328;43.992;2023-03-16T12:09:20;27.70;;;3.03;;
69246;SDS011;56358;56.328;43.992;2023-03-16T12:14:26;17.48;;;2.58;;
69246;SDS011;56358;56.328;43.992;2023-03-16T12:19:05;15.13;;;2.75;;
69246;SDS011;56358;56.328;43.992;2023-03-16T12:21:25;19.60;;;3.35;;
69246;SDS011;56358;56.328;43.992;2023-03-16T12:23:32;21.73;;;4.13;;
69246;SDS011;56358;56.328;43.992;2023-03-16T12:25:38;16.23;;;3.70;;
69246;SDS011;56358;56.328;43.992;2023-03-16T12:27:41;27.15;;;4.50;;
69246;SDS011;56358;56.328;43.992;2023-03-16T12:29:49;20.27;;;3.35;;
69246;SDS011;56358;56.328;43.992;2023-03-16T12:45:51;23.88;;;2.33;;
69246;SDS011;56358;56.328;43.992;2023-03-16T12:50:27;19.70;;;2.80;;
69246;SDS011;56358;56.328;43.992;2023-03-16T12:52:27;16.63;;;3.33;;
69246;SDS011;56358;56.328;43.992;2023-03-16T12:54:51;19.90;;;3.63;;
69246;SDS011;56358;56.328;43.992;2023-03-16T12:57:04;11.73;;;2.55;;
69246;SDS011;56358;56.328;43.992;2023-03-16T12:59:07;23.30;;;2.90;;
69246;SDS011;56358;56.328;43.992;2023-03-16T13:01:17;13.55;;;3.35;;
69246;SDS011;56358;56.328;43.992;2023-03-16T13:03:24;32.33;;;4.18;;
69246;SDS011;56358;56.328;43.992;2023-03-16T13:05:28;20.55;;;3.65;;
69246;SDS011;56358;56.328;43.992;2023-03-16T13:07:31;16.90;;;3.10;;
69246;SDS011;56358;56.328;43.992;2023-03-16T13:09:34;30.73;;;4.15;;
69246;SDS011;56358;56.328;43.992;2023-03-16T13:11:42;29.08;;;3.30;;
69246;SDS011;56358;56.328;43.992;2023-03-16T13:14:03;18.10;;;3.53;;
69246;SDS011;56358;56.328;43.992;2023-03-16T13:18:22;17.00;;;3.65;;
69246;SDS011;56358;56.328;43.992;2023-03-16T13:20:25;21.15;;;3.72;;
69246;SDS011;56358;56.328;43.992;2023-03-16T13:22:29;24.50;;;3.40;;
69246;SDS011;56358;56.328;43.992;2023-03-16T13:24:43;17.77;;;3.55;;
69246;SDS011;56358;56.328;43.992;2023-03-16T13:26:52;23.33;;;3.30;;